createdAt,value
2023-05-09T00:00:32.351Z,58.69
2023-05-09T00:03:06.483Z,58.42
2023-05-09T00:05:39.840Z,58.73
2023-05-09T00:08:12.611Z,58.69
2023-05-09T00:10:45.500Z,58.45
2023-05-09T00:13:18.895Z,58.82
2023-05-09T00:15:54.561Z,58.48
2023-05-09T00:18:31.426Z,59.36
2023-05-09T00:21:04.508Z,59.66
2023-05-09T00:23:37.539Z,59.93
2023-05-09T00:26:11.242Z,59.87
2023-05-09T00:28:47.469Z,59.03
2023-05-09T00:31:20.809Z,58.83
2023-05-09T00:33:56.077Z,58.98
2023-05-09T00:36:28.586Z,59.11
2023-05-09T00:39:01.722Z,59.00
2023-05-09T00:41:34.560Z,59.02
2023-05-09T00:44:08.254Z,59.01
2023-05-09T00:46:40.931Z,59.30
2023-05-09T00:49:16.043Z,59.30
2023-05-09T00:51:50.165Z,58.76
2023-05-09T00:54:23.286Z,59.91
2023-05-09T00:56:56.367Z,59.87
2023-05-09T00:59:28.982Z,58.91
2023-05-09T01:02:01.926Z,59.40
2023-05-09T01:04:36.204Z,58.75
2023-05-09T01:07:16.363Z,59.58
2023-05-09T01:10:01.232Z,59.10
2023-05-09T01:12:43.609Z,59.15
2023-05-09T01:15:25.138Z,59.30
2023-05-09T01:18:02.857Z,59.65
2023-05-09T01:20:45.681Z,58.96
2023-05-09T01:23:44.428Z,59.15
2023-05-09T01:26:26.221Z,59.38
2023-05-09T01:29:23.676Z,58.68
2023-05-09T01:31:57.220Z,59.06
2023-05-09T01:34:32.987Z,59.10
2023-05-09T01:37:07.524Z,58.61
2023-05-09T01:39:42.904Z,59.22
2023-05-09T01:42:18.350Z,59.78
2023-05-09T01:44:54.447Z,59.35
2023-05-09T01:47:28.327Z,59.63
2023-05-09T01:50:03.128Z,59.94
2023-05-09T01:52:38.116Z,59.98
2023-05-09T01:55:12.697Z,60.86
2023-05-09T01:57:46.339Z,60.53
2023-05-09T02:00:22.302Z,60.43
2023-05-09T02:02:57.442Z,60.79
2023-05-09T02:05:31.955Z,59.90
2023-05-09T02:08:05.922Z,60.72
2023-05-09T02:10:39.954Z,60.38
2023-05-09T02:13:13.243Z,60.05
2023-05-09T02:15:47.883Z,60.79
2023-05-09T02:18:23.373Z,60.21
2023-05-09T02:20:56.423Z,60.41
2023-05-09T02:23:30.009Z,60.52
2023-05-09T02:26:03.024Z,60.04
2023-05-09T02:28:36.958Z,60.38
2023-05-09T02:31:14.166Z,60.20
2023-05-09T02:33:51.889Z,60.63
2023-05-09T02:36:25.267Z,61.02
2023-05-09T02:38:58.620Z,60.69
2023-05-09T02:41:31.013Z,61.57
2023-05-09T02:44:04.482Z,60.91
2023-05-09T02:46:38.378Z,60.74
2023-05-09T02:49:19.547Z,60.47
2023-05-09T02:52:00.936Z,60.55
2023-05-09T02:54:33.527Z,60.34
2023-05-09T02:57:07.167Z,59.80
2023-05-09T02:59:39.624Z,59.94
2023-05-09T03:02:13.855Z,60.54
2023-05-09T03:04:46.861Z,59.37
2023-05-09T03:07:19.919Z,59.61
2023-05-09T03:09:52.468Z,59.36
2023-05-09T03:12:25.850Z,60.65
2023-05-09T03:15:01.388Z,60.63
2023-05-09T03:17:39.163Z,60.62
2023-05-09T03:20:11.972Z,61.25
2023-05-09T03:22:45.568Z,60.15
2023-05-09T03:25:18.426Z,60.27
2023-05-09T03:27:53.073Z,60.35
2023-05-09T03:30:27.611Z,59.52
2023-05-09T03:33:05.318Z,58.67
2023-05-09T03:35:37.861Z,60.05
2023-05-09T03:38:10.796Z,59.52
2023-05-09T03:40:43.514Z,59.20
2023-05-09T03:43:17.918Z,58.82
2023-05-09T03:45:50.547Z,59.39
2023-05-09T03:48:25.018Z,59.24
2023-05-09T03:50:58.385Z,59.52
2023-05-09T03:53:33.731Z,59.66
2023-05-09T03:56:07.873Z,58.95
2023-05-09T03:58:47.104Z,58.75
2023-05-09T04:01:21.162Z,59.15
2023-05-09T04:03:57.737Z,59.23
2023-05-09T04:06:31.847Z,58.23
2023-05-09T04:09:06.991Z,59.09
2023-05-09T04:11:40.997Z,58.50
2023-05-09T04:14:17.116Z,58.30
2023-05-09T04:16:50.230Z,58.68
2023-05-09T04:19:25.112Z,58.21
2023-05-09T04:21:58.382Z,58.00
2023-05-09T04:24:31.708Z,58.07
2023-05-09T04:27:04.914Z,57.56
2023-05-09T04:29:39.114Z,56.83
2023-05-09T04:32:12.852Z,56.70
2023-05-09T04:34:47.175Z,56.00
2023-05-09T04:37:26.686Z,55.69
2023-05-09T04:39:59.732Z,55.21
2023-05-09T04:42:41.757Z,55.01
2023-05-09T04:45:14.605Z,54.38
2023-05-09T04:47:48.854Z,53.56
2023-05-09T04:50:22.963Z,53.96
2023-05-09T04:52:55.517Z,53.26
2023-05-09T04:55:28.494Z,52.83
2023-05-09T04:58:02.861Z,52.55
2023-05-09T05:00:36.048Z,51.85
2023-05-09T05:03:09.959Z,51.91
2023-05-09T05:05:44.501Z,51.72
2023-05-09T05:08:17.803Z,51.40
2023-05-09T05:10:54.970Z,50.56
2023-05-09T05:13:32.769Z,50.61
2023-05-09T05:16:07.434Z,50.15
2023-05-09T05:18:40.804Z,49.71
2023-05-09T05:21:16.462Z,48.11
2023-05-09T05:23:50.618Z,47.14
2023-05-09T05:26:24.013Z,46.59
2023-05-09T05:28:57.326Z,46.09
2023-05-09T05:31:31.292Z,46.26
2023-05-09T05:34:05.754Z,45.51
2023-05-09T05:36:40.594Z,44.83
2023-05-09T05:39:13.793Z,44.29
2023-05-09T05:41:46.845Z,44.18
2023-05-09T05:44:23.058Z,44.46
2023-05-09T05:46:55.598Z,43.97
2023-05-09T05:49:29.252Z,43.20
2023-05-09T05:52:03.884Z,42.90
2023-05-09T05:54:37.436Z,43.02
2023-05-09T05:57:09.969Z,42.54
2023-05-09T05:59:42.934Z,42.17
2023-05-09T06:02:16.187Z,41.95
2023-05-09T06:04:48.904Z,41.52
2023-05-09T06:07:23.635Z,41.51
2023-05-09T06:09:57.866Z,41.01
2023-05-09T06:12:30.798Z,40.70
2023-05-09T06:15:05.993Z,39.44
2023-05-09T06:17:42.934Z,39.59
2023-05-09T06:20:15.620Z,39.49
2023-05-09T06:22:51.472Z,38.42
2023-05-09T06:25:24.743Z,38.33
2023-05-09T06:27:58.300Z,39.22
2023-05-09T06:30:31.012Z,39.66
2023-05-09T06:33:04.085Z,38.44
2023-05-09T06:35:36.944Z,38.57
2023-05-09T06:38:11.181Z,38.86
2023-05-09T06:40:43.767Z,38.38
2023-05-09T06:43:16.933Z,38.19
2023-05-09T06:45:49.517Z,37.77
2023-05-09T06:48:24.376Z,37.79
2023-05-09T06:50:56.900Z,37.58
2023-05-09T06:53:32.021Z,37.43
2023-05-09T06:56:05.396Z,37.42
2023-05-09T06:58:38.617Z,36.80
2023-05-09T07:01:11.510Z,36.09
2023-05-09T07:03:44.741Z,36.10
2023-05-09T07:06:18.059Z,36.44
2023-05-09T07:08:52.511Z,36.25
2023-05-09T07:11:25.093Z,35.92
2023-05-09T07:13:58.205Z,35.47
2023-05-09T07:16:30.936Z,35.80
2023-05-09T07:19:04.051Z,35.67
2023-05-09T07:21:36.706Z,35.46
2023-05-09T07:24:11.425Z,35.04
2023-05-09T07:26:43.932Z,34.39
2023-05-09T07:29:18.588Z,33.98
2023-05-09T07:31:52.160Z,33.78
2023-05-09T07:34:25.643Z,33.79
2023-05-09T07:36:59.112Z,33.45
2023-05-09T07:39:32.997Z,33.63
2023-05-09T07:42:05.850Z,32.76
2023-05-09T07:44:38.667Z,33.23
2023-05-09T07:47:11.983Z,32.42
2023-05-09T07:49:46.643Z,31.50
2023-05-09T07:52:19.490Z,32.41
2023-05-09T07:54:54.769Z,31.74
2023-05-09T07:57:28.104Z,32.80
2023-05-09T08:00:00.834Z,32.68
2023-05-09T08:02:36.088Z,32.04
2023-05-09T08:05:11.916Z,32.33
2023-05-09T08:07:44.612Z,31.92
2023-05-09T08:10:21.940Z,30.84
2023-05-09T08:12:55.319Z,30.36
2023-05-09T08:15:27.895Z,31.84
2023-05-09T08:18:00.948Z,32.24
2023-05-09T08:20:34.650Z,32.48
2023-05-09T08:23:07.780Z,32.77
2023-05-09T08:25:43.173Z,32.60
2023-05-09T08:28:16.012Z,32.35
2023-05-09T08:30:51.818Z,31.00
2023-05-09T08:33:25.174Z,31.27
2023-05-09T08:35:58.145Z,32.41
2023-05-09T08:38:31.337Z,32.43
2023-05-09T08:41:05.485Z,32.46
2023-05-09T08:43:41.036Z,31.41
2023-05-09T08:46:16.034Z,31.40
2023-05-09T08:48:49.282Z,31.89
2023-05-09T08:51:22.933Z,31.67
2023-05-09T08:53:55.432Z,31.58
2023-05-09T08:56:30.650Z,30.75
2023-05-09T08:59:05.915Z,31.16
2023-05-09T09:01:39.601Z,31.47
2023-05-09T09:04:12.804Z,31.88
2023-05-09T09:06:46.949Z,30.95
2023-05-09T09:09:20.607Z,31.35
2023-05-09T09:11:55.966Z,31.52
2023-05-09T09:14:31.731Z,31.08
2023-05-09T09:17:06.805Z,31.08
2023-05-09T09:19:43.328Z,31.52
2023-05-09T09:22:19.419Z,30.42
2023-05-09T09:24:52.605Z,30.45
2023-05-09T09:27:26.458Z,30.34
2023-05-09T09:30:07.781Z,30.22
2023-05-09T09:32:41.195Z,30.08
2023-05-09T09:35:14.050Z,30.36
2023-05-09T09:37:46.633Z,30.33
2023-05-09T09:40:20.014Z,30.82
2023-05-09T09:42:54.315Z,31.28
2023-05-09T09:45:28.290Z,31.25
2023-05-09T09:48:07.078Z,31.18
2023-05-09T09:50:40.213Z,30.21
2023-05-09T09:53:12.970Z,30.55
2023-05-09T09:55:51.502Z,31.42
2023-05-09T09:58:26.043Z,30.14
2023-05-09T10:01:06.752Z,30.03
2023-05-09T10:03:41.627Z,30.68
2023-05-09T10:06:16.197Z,30.98
2023-05-09T10:08:49.432Z,31.26
2023-05-09T10:11:23.152Z,31.27
2023-05-09T10:13:57.406Z,31.30
2023-05-09T10:16:40.188Z,30.27
2023-05-09T10:19:19.293Z,30.62
2023-05-09T10:21:55.050Z,30.73
2023-05-09T10:24:30.048Z,30.97
2023-05-09T10:27:05.196Z,31.62
2023-05-09T10:29:44.623Z,30.36
2023-05-09T10:32:23.754Z,30.87
2023-05-09T10:35:02.329Z,31.29
2023-05-09T10:37:37.975Z,30.62
2023-05-09T10:40:15.244Z,31.49
2023-05-09T10:42:48.895Z,30.96
2023-05-09T10:45:23.729Z,30.87
2023-05-09T10:47:58.066Z,31.56
2023-05-09T10:50:31.624Z,30.47
2023-05-09T10:53:11.542Z,30.18
2023-05-09T10:55:52.889Z,29.79
2023-05-09T10:58:28.518Z,29.43
2023-05-09T11:01:04.657Z,29.55
2023-05-09T11:03:56.634Z,29.76
2023-05-09T11:06:49.042Z,30.22
2023-05-09T11:09:33.924Z,30.46
2023-05-09T11:12:12.342Z,30.16
2023-05-09T11:14:47.387Z,30.70
2023-05-09T11:17:32.271Z,31.63
2023-05-09T11:20:09.132Z,31.58
2023-05-09T11:22:44.965Z,31.37
2023-05-09T11:25:25.222Z,30.92
2023-05-09T11:28:02.169Z,31.24
2023-05-09T11:30:40.994Z,31.14
2023-05-09T11:33:24.398Z,31.66
2023-05-09T11:36:17.338Z,31.48
2023-05-09T11:39:02.253Z,31.57
2023-05-09T11:41:43.276Z,30.68
2023-05-09T11:44:17.978Z,30.51
2023-05-09T11:46:50.951Z,30.31
2023-05-09T11:49:25.875Z,30.50
2023-05-09T11:52:00.098Z,30.57
2023-05-09T11:54:33.074Z,30.10
2023-05-09T11:57:06.262Z,30.55
2023-05-09T11:59:38.971Z,29.85
2023-05-09T12:02:11.966Z,30.41
2023-05-09T12:04:46.671Z,29.95
2023-05-09T12:07:19.125Z,30.24
2023-05-09T12:09:52.885Z,29.68
2023-05-09T12:12:25.459Z,29.94
2023-05-09T12:15:05.099Z,29.94
2023-05-09T12:17:39.957Z,29.48
2023-05-09T12:20:15.039Z,28.89
2023-05-09T12:22:54.541Z,29.98
2023-05-09T12:25:32.144Z,29.63
2023-05-09T12:28:05.558Z,29.54
2023-05-09T12:30:38.920Z,29.55
2023-05-09T12:33:12.497Z,29.44
2023-05-09T12:35:48.817Z,30.33
2023-05-09T12:38:22.811Z,30.24
2023-05-09T12:41:04.131Z,30.18
2023-05-09T12:43:39.517Z,30.42
2023-05-09T12:46:12.540Z,30.53
2023-05-09T12:48:45.544Z,30.40
2023-05-09T12:51:21.281Z,30.88
2023-05-09T12:53:54.549Z,30.88
2023-05-09T12:56:27.030Z,30.38
2023-05-09T12:59:15.004Z,30.51
2023-05-09T13:01:54.105Z,31.21
2023-05-09T13:04:31.521Z,30.82
2023-05-09T13:07:10.450Z,30.64
2023-05-09T13:10:01.505Z,31.26
2023-05-09T13:12:35.979Z,31.01
2023-05-09T13:15:11.462Z,30.84
2023-05-09T13:17:44.140Z,30.93
2023-05-09T13:20:18.131Z,30.74
2023-05-09T13:22:52.426Z,30.31
2023-05-09T13:25:25.364Z,30.61
2023-05-09T13:28:00.819Z,30.58
2023-05-09T13:30:37.779Z,30.48
2023-05-09T13:33:24.611Z,30.67
2023-05-09T13:35:58.784Z,30.77
2023-05-09T13:38:37.025Z,30.10
2023-05-09T13:41:10.346Z,30.51
2023-05-09T13:43:43.394Z,29.91
2023-05-09T13:46:16.328Z,30.06
2023-05-09T13:48:49.239Z,30.11
2023-05-09T13:51:23.092Z,29.99
2023-05-09T13:53:59.455Z,30.34
2023-05-09T13:56:32.983Z,30.26
2023-05-09T13:59:06.372Z,31.02
2023-05-09T14:01:39.392Z,30.43
2023-05-09T14:04:12.930Z,30.54
2023-05-09T14:06:48.668Z,29.73
2023-05-09T14:09:23.374Z,30.28
2023-05-09T14:11:57.580Z,30.90
2023-05-09T14:14:30.393Z,30.38
2023-05-09T14:17:06.302Z,30.72
2023-05-09T14:19:38.775Z,30.92
2023-05-09T14:22:12.240Z,30.89
2023-05-09T14:24:46.422Z,30.08
2023-05-09T14:27:19.591Z,30.28
2023-05-09T14:29:52.541Z,30.64
2023-05-09T14:32:25.640Z,30.26
2023-05-09T14:35:01.477Z,30.83
2023-05-09T14:37:37.693Z,30.36
2023-05-09T14:40:13.453Z,30.50
2023-05-09T14:42:47.681Z,30.73
2023-05-09T14:45:20.933Z,30.79
2023-05-09T14:47:53.828Z,30.63
2023-05-09T14:50:26.766Z,31.10
2023-05-09T14:53:01.113Z,31.02
2023-05-09T14:55:36.719Z,30.71
2023-05-09T14:58:09.595Z,30.85
2023-05-09T15:00:42.637Z,31.10
2023-05-09T15:03:15.754Z,30.93
2023-05-09T15:05:48.603Z,30.78
2023-05-09T15:08:21.368Z,30.57
2023-05-09T15:10:58.264Z,30.64
2023-05-09T15:13:30.843Z,30.71
2023-05-09T15:16:03.731Z,31.18
2023-05-09T15:18:36.323Z,31.40
2023-05-09T15:21:09.476Z,31.79
2023-05-09T15:23:42.385Z,31.74
2023-05-09T15:26:17.517Z,31.26
2023-05-09T15:28:50.546Z,31.17
2023-05-09T15:31:24.961Z,31.42
2023-05-09T15:33:58.334Z,31.50
2023-05-09T15:36:31.328Z,31.62
2023-05-09T15:39:05.584Z,31.18
2023-05-09T15:41:40.160Z,31.29
2023-05-09T15:44:14.898Z,31.09
2023-05-09T15:46:48.505Z,31.27
2023-05-09T15:49:21.756Z,30.94
2023-05-09T15:51:55.162Z,31.23
2023-05-09T15:54:27.957Z,31.29
2023-05-09T15:57:02.916Z,31.59
2023-05-09T15:59:35.931Z,31.67
2023-05-09T16:02:09.113Z,32.03
2023-05-09T16:04:42.603Z,31.51
2023-05-09T16:07:15.496Z,31.90
2023-05-09T16:09:48.240Z,31.87
2023-05-09T16:12:22.682Z,31.97
2023-05-09T16:14:55.089Z,32.07
2023-05-09T16:17:28.328Z,32.10
2023-05-09T16:20:01.130Z,31.88
2023-05-09T16:22:34.299Z,32.27
2023-05-09T16:25:08.243Z,32.58
2023-05-09T16:27:42.841Z,32.45
2023-05-09T16:30:16.424Z,32.37
2023-05-09T16:32:49.343Z,32.91
2023-05-09T16:35:25.042Z,32.56
2023-05-09T16:37:57.838Z,33.09
2023-05-09T16:40:31.571Z,33.33
2023-05-09T16:43:08.504Z,33.79
2023-05-09T16:45:41.480Z,33.44
2023-05-09T16:48:14.501Z,33.63
2023-05-09T16:50:48.514Z,33.73
2023-05-09T16:53:22.895Z,33.82
2023-05-09T16:55:57.661Z,34.15
2023-05-09T16:58:31.541Z,34.32
2023-05-09T17:01:04.568Z,35.19
2023-05-09T17:03:37.424Z,35.89
2023-05-09T17:06:12.780Z,36.05
2023-05-09T17:08:46.159Z,36.28
2023-05-09T17:11:19.074Z,36.49
2023-05-09T17:13:53.363Z,37.04
2023-05-09T17:16:26.933Z,37.27
2023-05-09T17:18:59.696Z,36.89
2023-05-09T17:21:33.457Z,37.14
2023-05-09T17:24:07.555Z,37.29
2023-05-09T17:26:40.355Z,37.30
2023-05-09T17:29:14.376Z,38.38
2023-05-09T17:31:47.230Z,39.40
2023-05-09T17:34:20.147Z,39.87
2023-05-09T17:36:52.669Z,39.45
2023-05-09T17:39:31.905Z,39.73
2023-05-09T17:42:13.291Z,39.86
2023-05-09T17:44:51.047Z,40.06
2023-05-09T17:47:25.134Z,40.74
2023-05-09T17:49:57.835Z,41.11
2023-05-09T17:52:31.100Z,41.67
2023-05-09T17:55:04.145Z,41.92
2023-05-09T17:57:37.413Z,42.75
2023-05-09T18:00:13.366Z,42.59
2023-05-09T18:02:48.332Z,42.91
2023-05-09T18:05:21.295Z,43.21
2023-05-09T18:07:54.165Z,43.39
2023-05-09T18:10:27.635Z,43.52
2023-05-09T18:13:02.693Z,43.54
2023-05-09T18:15:38.549Z,44.23
2023-05-09T18:18:12.876Z,43.87
2023-05-09T18:20:47.542Z,43.97
2023-05-09T18:23:22.045Z,44.16
2023-05-09T18:25:54.985Z,44.36
2023-05-09T18:28:28.107Z,44.51
2023-05-09T18:31:03.897Z,44.96
2023-05-09T18:33:39.033Z,45.82
2023-05-09T18:36:15.593Z,46.04
2023-05-09T18:38:48.411Z,46.31
2023-05-09T18:41:22.178Z,46.42
2023-05-09T18:43:58.536Z,46.58
2023-05-09T18:46:34.141Z,46.79
2023-05-09T18:49:07.056Z,47.64
2023-05-09T18:51:40.269Z,47.73
2023-05-09T18:54:14.369Z,48.46
2023-05-09T18:56:51.493Z,48.52
2023-05-09T18:59:24.532Z,47.97
2023-05-09T19:01:58.889Z,47.62
2023-05-09T19:04:31.923Z,47.50
2023-05-09T19:07:04.928Z,47.91
2023-05-09T19:09:37.391Z,47.93
2023-05-09T19:12:12.592Z,48.51
2023-05-09T19:14:45.665Z,48.68
2023-05-09T19:17:20.329Z,47.71
2023-05-09T19:19:53.496Z,48.22
2023-05-09T19:22:28.369Z,48.17
2023-05-09T19:25:01.114Z,48.53
2023-05-09T19:27:34.903Z,48.56
2023-05-09T19:30:09.536Z,48.38
2023-05-09T19:32:44.069Z,48.14
2023-05-09T19:35:16.806Z,49.05
2023-05-09T19:37:51.039Z,48.89
2023-05-09T19:40:23.604Z,49.60
2023-05-09T19:42:57.022Z,49.75
2023-05-09T19:45:30.185Z,50.03
2023-05-09T19:48:05.485Z,50.07
2023-05-09T19:50:38.046Z,49.74
2023-05-09T19:53:10.967Z,50.17
2023-05-09T19:55:47.034Z,50.75
2023-05-09T19:58:20.495Z,50.77
2023-05-09T20:00:53.011Z,51.09
2023-05-09T20:03:27.930Z,50.66
2023-05-09T20:06:01.322Z,50.82
2023-05-09T20:08:34.726Z,51.50
2023-05-09T20:11:07.909Z,51.63
2023-05-09T20:13:41.802Z,51.54
2023-05-09T20:16:14.650Z,51.09
2023-05-09T20:18:50.740Z,51.06
2023-05-09T20:21:27.253Z,52.06
2023-05-09T20:23:59.897Z,51.46
2023-05-09T20:26:33.125Z,51.28
2023-05-09T20:29:05.548Z,51.78
2023-05-09T20:31:38.655Z,52.12
2023-05-09T20:34:16.594Z,51.90
2023-05-09T20:36:53.372Z,52.00
2023-05-09T20:39:27.362Z,51.99
2023-05-09T20:42:02.596Z,52.29
2023-05-09T20:44:35.763Z,52.58
2023-05-09T20:47:08.319Z,52.55
2023-05-09T20:49:42.673Z,52.41
2023-05-09T20:52:15.578Z,52.19
2023-05-09T20:54:48.720Z,52.98
2023-05-09T20:57:21.297Z,53.18
2023-05-09T20:59:54.216Z,53.29
2023-05-09T21:02:27.072Z,53.59
2023-05-09T21:05:01.730Z,53.80
2023-05-09T21:07:38.922Z,53.88
2023-05-09T21:10:12.116Z,53.76
2023-05-09T21:12:44.779Z,54.41
2023-05-09T21:15:17.693Z,53.91
2023-05-09T21:17:50.837Z,53.28
2023-05-09T21:20:25.020Z,54.36
2023-05-09T21:22:57.567Z,53.81
2023-05-09T21:25:30.886Z,53.71
2023-05-09T21:28:03.383Z,53.85
2023-05-09T21:30:36.412Z,54.96
2023-05-09T21:33:09.293Z,55.26
2023-05-09T21:35:43.524Z,55.60
2023-05-09T21:38:16.425Z,55.24
2023-05-09T21:40:50.195Z,56.19
2023-05-09T21:43:23.484Z,55.86
2023-05-09T21:45:55.969Z,55.56
2023-05-09T21:48:29.103Z,56.42
2023-05-09T21:51:04.348Z,56.13
2023-05-09T21:53:36.889Z,56.58
2023-05-09T21:56:09.808Z,56.00
2023-05-09T21:58:42.274Z,56.13
2023-05-09T22:01:16.245Z,56.24
2023-05-09T22:03:48.950Z,57.34
2023-05-09T22:06:23.974Z,57.12
2023-05-09T22:08:56.584Z,56.61
2023-05-09T22:11:29.625Z,57.21
2023-05-09T22:14:02.681Z,57.18
2023-05-09T22:16:35.245Z,56.63
2023-05-09T22:19:08.146Z,56.63
2023-05-09T22:21:42.429Z,57.19
2023-05-09T22:24:15.541Z,57.64
2023-05-09T22:26:47.991Z,56.50
2023-05-09T22:29:20.737Z,57.10
2023-05-09T22:31:54.725Z,57.04
2023-05-09T22:34:27.842Z,57.58
2023-05-09T22:37:02.006Z,58.30
2023-05-09T22:39:35.919Z,57.45
2023-05-09T22:42:11.367Z,58.03
2023-05-09T22:44:44.460Z,58.31
2023-05-09T22:47:16.958Z,58.60
2023-05-09T22:49:50.635Z,58.63
2023-05-09T22:52:24.951Z,58.42
2023-05-09T22:54:57.996Z,58.24
2023-05-09T22:57:30.694Z,58.23
2023-05-09T23:00:04.808Z,59.35
2023-05-09T23:02:39.216Z,58.02
2023-05-09T23:05:11.800Z,58.77
2023-05-09T23:07:46.165Z,58.54
2023-05-09T23:10:19.616Z,58.90
2023-05-09T23:12:53.053Z,57.95
2023-05-09T23:15:26.064Z,58.99
2023-05-09T23:17:59.201Z,58.96
2023-05-09T23:20:32.466Z,59.42
2023-05-09T23:23:06.767Z,59.46
2023-05-09T23:25:40.138Z,59.56
2023-05-09T23:28:12.693Z,60.06
2023-05-09T23:30:45.561Z,60.02
2023-05-09T23:33:18.219Z,59.85
2023-05-09T23:35:50.978Z,59.94
2023-05-09T23:38:25.194Z,60.14
2023-05-09T23:40:58.983Z,60.10
2023-05-09T23:43:31.562Z,59.74
2023-05-09T23:46:04.709Z,60.11
2023-05-09T23:48:37.288Z,60.20
2023-05-09T23:51:10.145Z,59.94
2023-05-09T23:53:44.618Z,59.85
2023-05-09T23:56:17.724Z,60.30
2023-05-09T23:58:50.529Z,59.99
